• Join FlightAware (Why Join?)
  • Login
  • US Flag 
10:26AM EDT


 

Airport Tracker/Info


-or-


 

Live Flight TrackerFlight Track Log ✈ N733GL ✈ 28-Aug-2013 ✈ I67 - KMIE

Flight Track Log - Related Links

Times and Time Zones

All times are in EDT time to prevent confusion due to time zone crossing. See the N733GL flight status page for this flight to view local times or setup timezone preferences in your user account.

Time Position Orientation Groundspeed Altitude Reporting Facility
EDT Latitude Longitude Course Direction KTS MPH feet Rate Location/Type
10:33AM 39.3500 -84.8500 334° Northwest 61 70 4,300  Level Cincinnati TRACON
10:35AM 39.3667 -84.8667 322° Northwest 68 78 4,500 60 Climbing Cincinnati TRACON
10:36AM 39.3794 -84.8794 322° Northwest 78 90 4,500 -60 Level Indianapolis Center
10:37AM 39.4008 -84.8944 332° Northwest 78 90 4,400 -60 Descending Indianapolis Center
10:38AM 39.4203 -84.9089 330° Northwest 77 89 4,400  Level Indianapolis Center
10:39AM 39.4245 -84.8774 334° Northwest  Level Estimated
10:39AM 39.4408 -84.9194 338° Northwest 78 90 4,500  Level Indianapolis Center
10:40AM 39.4644 -84.9281 344° North 75 86 4,500  Level Indianapolis Center
10:41AM 39.4808 -84.9369 337° Northwest 77 89 4,500  Level Indianapolis Center
10:42AM 39.5061 -84.9522 335° Northwest 81 93 4,500  Level Indianapolis Center
10:43AM 39.5258 -84.9639 335° Northwest 81 93 4,500  Level Indianapolis Center
10:44AM 39.5478 -84.9736 341° North 81 93 4,500  Level Indianapolis Center
10:45AM 39.5703 -84.9806 347° North 82 94 4,500  Level Indianapolis Center
10:46AM 39.5925 -84.9875 346° North 85 98 4,500  Level Indianapolis Center
10:47AM 39.6119 -85.0022 330° Northwest 78 90 4,600  Climbing Indianapolis Center
10:48AM 39.6336 -85.0172 332° Northwest 79 91 4,500 -60 Descending Indianapolis Center
10:49AM 39.6492 -85.0283 331° Northwest 80 92 4,500  Level Indianapolis Center
10:50AM 39.6728 -85.0436 334° Northwest 78 90 4,500 -60 Level Indianapolis Center
10:51AM 39.6914 -85.0625 322° Northwest 80 92 4,400 -60 Descending Indianapolis Center
10:52AM 39.7067 -85.0814 316° Northwest 80 92 4,400  Level Indianapolis Center
10:53AM 39.7239 -85.0967 326° Northwest 77 89 4,400  Level Indianapolis Center
10:54AM 39.7428 -85.1089 334° Northwest 75 86 4,500  Climbing Indianapolis Center
10:55AM 39.7678 -85.1231 336° Northwest 77 89 4,500  Level Indianapolis Center
10:56AM 39.7872 -85.1361 333° Northwest 79 91 4,500  Level Indianapolis Center
10:57AM 39.8081 -85.1464 339° North 79 91 4,500  Level Indianapolis Center
10:59AM 39.8292 -85.1581 337° Northwest 80 92 4,500  Level Indianapolis Center
11:00AM 39.8506 -85.1722 333° Northwest 81 93 4,500  Level Indianapolis Center
11:02AM 39.8982 -85.1786 354° North  Level FlightAware Approximate
11:09AM 40.0558 -85.2690 332° Northwest  Level FlightAware Approximate
11:10AM 40.0773 -85.2841 332° Northwest  Level FlightAware Approximate